Time;durP1;ratioP1;P1;durP2;ratioP2;P2;SDS_P1;SDS_P2;PMS_P1;PMS_P2;Temp;Humidity;BMP_temperature;BMP_pressure;BME280_temperature;BME280_humidity;BME280_pressure;Samples;Min_cycle;Max_cycle;Signal;HPM_P1;HPM_P2
2024/01/10 00:00:19;;;;;;;0.50;0.50;;;-0.10;75.00;;;;;;10562602;28;20280;-76
2024/01/10 00:05:21;;;;;;;0.30;0.30;;;0.00;75.40;;;;;;10570843;28;20219;-77
2024/01/10 00:10:23;;;;;;;0.30;0.30;;;0.10;75.10;;;;;;10562030;28;20272;-77
2024/01/10 00:15:27;;;;;;;0.30;0.30;;;0.10;74.80;;;;;;10576416;28;20230;-75
2024/01/10 00:20:29;;;;;;;0.40;0.40;;;0.20;73.30;;;;;;10565905;28;20245;-77
2024/01/10 00:25:32;;;;;;;0.40;0.40;;;0.30;72.50;;;;;;10570727;28;20222;-77
2024/01/10 00:30:35;;;;;;;0.30;0.30;;;0.30;72.20;;;;;;10569349;28;20202;-77
2024/01/10 00:35:38;;;;;;;0.30;0.30;;;0.30;71.40;;;;;;10560979;28;20219;-77
2024/01/10 00:40:40;;;;;;;0.30;0.30;;;0.30;71.90;;;;;;10567776;28;20244;-77
2024/01/10 00:45:44;;;;;;;0.30;0.30;;;0.30;72.50;;;;;;10561274;28;20586;-76
2024/01/10 00:50:47;;;;;;;0.30;0.30;;;0.30;71.10;;;;;;10566546;28;20204;-76
2024/01/10 00:55:49;;;;;;;0.30;0.30;;;0.20;71.40;;;;;;10554432;28;20219;-76
2024/01/10 01:00:53;;;;;;;0.30;0.30;;;0.20;70.90;;;;;;10578782;28;20191;-76
2024/01/10 01:05:56;;;;;;;0.30;0.30;;;0.20;70.90;;;;;;10567283;28;20252;-75
2024/01/10 01:10:58;;;;;;;0.30;0.30;;;0.20;71.70;;;;;;10571589;28;20203;-77
2024/01/10 01:16:02;;;;;;;0.30;0.30;;;0.20;71.60;;;;;;10550993;28;20215;-76
2024/01/10 01:21:04;;;;;;;0.30;0.30;;;0.20;72.40;;;;;;10577168;28;20616;-76
2024/01/10 01:26:07;;;;;;;0.30;0.30;;;0.20;72.80;;;;;;10562906;28;20308;-76
2024/01/10 01:31:11;;;;;;;0.30;0.30;;;0.20;72.10;;;;;;10557796;28;20252;-77
2024/01/10 01:36:13;;;;;;;0.30;0.30;;;0.30;72.20;;;;;;10570705;28;20212;-75
2024/01/10 01:41:16;;;;;;;0.30;0.30;;;0.30;72.90;;;;;;10544132;28;20636;-75
2024/01/10 01:46:20;;;;;;;0.40;0.40;;;0.40;71.80;;;;;;10557299;28;20227;-76
2024/01/10 01:51:23;;;;;;;0.30;0.30;;;0.40;72.40;;;;;;10576847;28;20609;-75
2024/01/10 01:56:26;;;;;;;0.30;0.30;;;0.50;72.40;;;;;;10551443;28;20634;-76
2024/01/10 02:01:29;;;;;;;0.30;0.30;;;0.60;71.70;;;;;;10563613;28;20624;-78
2024/01/10 02:06:32;;;;;;;0.40;0.40;;;0.60;71.70;;;;;;10565594;28;20211;-75
2024/01/10 02:11:34;;;;;;;0.40;0.40;;;0.70;70.30;;;;;;10557078;28;20199;-76
2024/01/10 02:16:38;;;;;;;0.40;0.40;;;0.70;68.80;;;;;;10565318;28;20246;-77
2024/01/10 02:21:40;;;;;;;0.30;0.30;;;0.60;69.30;;;;;;10566987;28;20248;-76
2024/01/10 02:26:44;;;;;;;0.30;0.30;;;0.60;71.00;;;;;;10539122;28;20214;-75
2024/01/10 02:31:47;;;;;;;0.30;0.30;;;0.60;70.00;;;;;;10568803;28;20267;-76
2024/01/10 02:36:49;;;;;;;0.30;0.30;;;0.50;70.40;;;;;;10538886;28;20633;-76
2024/01/10 02:41:53;;;;;;;0.30;0.30;;;0.50;70.90;;;;;;10571190;28;20208;-76
2024/01/10 02:46:55;;;;;;;0.30;0.30;;;0.50;71.40;;;;;;10541944;28;20230;-76
2024/01/10 02:51:57;;;;;;;0.30;0.30;;;0.40;71.00;;;;;;10572983;28;20203;-76
2024/01/10 02:57:01;;;;;;;0.30;0.30;;;0.30;71.80;;;;;;10568436;28;20231;-75
2024/01/10 03:02:04;;;;;;;0.40;0.40;;;0.20;73.20;;;;;;10543455;28;20248;-76
2024/01/10 03:07:06;;;;;;;0.40;0.40;;;0.20;72.50;;;;;;10582061;28;20210;-76
2024/01/10 03:12:11;;;;;;;0.40;0.40;;;0.20;72.70;;;;;;10545755;28;20194;-77
2024/01/10 03:17:14;;;;;;;0.30;0.30;;;0.20;72.00;;;;;;10562898;28;20214;-76
2024/01/10 03:22:17;;;;;;;0.40;0.40;;;0.20;73.00;;;;;;10581649;28;20202;-76
2024/01/10 03:27:21;;;;;;;0.40;0.40;;;0.20;72.80;;;;;;10581491;28;20317;-76
2024/01/10 03:32:23;;;;;;;0.40;0.40;;;0.20;73.10;;;;;;10543628;27;20199;-76
2024/01/10 03:37:26;;;;;;;0.40;0.40;;;0.20;72.90;;;;;;10581132;28;20222;-76
2024/01/10 03:42:29;;;;;;;0.30;0.30;;;0.30;73.80;;;;;;10542456;28;20206;-77
2024/01/10 03:47:32;;;;;;;0.40;0.40;;;0.30;73.60;;;;;;10550291;28;20228;-76
2024/01/10 03:52:34;;;;;;;0.40;0.40;;;0.40;73.60;;;;;;10579951;28;20207;-76
2024/01/10 03:57:38;;;;;;;0.40;0.40;;;0.50;73.30;;;;;;10563529;28;20223;-76
2024/01/10 04:02:40;;;;;;;0.40;0.40;;;0.50;71.90;;;;;;10538999;28;20200;-77
2024/01/10 04:07:43;;;;;;;0.70;0.70;;;0.50;71.70;;;;;;10580362;28;20627;-77
2024/01/10 04:12:47;;;;;;;0.60;0.60;;;0.40;72.20;;;;;;10576990;28;20749;-75
2024/01/10 04:17:49;;;;;;;0.50;0.50;;;0.40;72.50;;;;;;10570604;28;20218;-76
2024/01/10 04:22:51;;;;;;;0.70;0.70;;;0.50;72.80;;;;;;10559849;28;20199;-76
2024/01/10 04:27:56;;;;;;;0.50;0.50;;;0.60;72.60;;;;;;10562243;27;20223;-77
2024/01/10 04:32:58;;;;;;;0.60;0.60;;;0.60;72.50;;;;;;10575671;28;20714;-76
2024/01/10 04:38:00;;;;;;;0.60;0.60;;;0.60;72.30;;;;;;10562017;28;20271;-75
2024/01/10 04:43:05;;;;;;;0.50;0.50;;;0.60;71.80;;;;;;10568869;28;20269;-77
2024/01/10 04:48:07;;;;;;;0.50;0.50;;;0.60;72.70;;;;;;10565799;28;20219;-76
2024/01/10 04:53:28;;;;;;;0.50;0.50;;;0.60;72.10;;;;;;10562167;28;20202;-76
2024/01/10 04:58:32;;;;;;;0.60;0.60;;;0.70;72.50;;;;;;10554410;28;20268;-76
2024/01/10 05:03:35;;;;;;;0.63;0.63;;;0.60;71.40;;;;;;10566812;28;20253;-77
2024/01/10 05:08:37;;;;;;;0.50;0.50;;;0.70;71.60;;;;;;10562696;28;20191;-77
2024/01/10 05:13:41;;;;;;;0.60;0.60;;;0.70;72.10;;;;;;10544066;28;20200;-77
2024/01/10 05:18:43;;;;;;;0.50;0.50;;;0.60;71.90;;;;;;10553951;28;20228;-77
2024/01/10 05:23:45;;;;;;;0.60;0.60;;;0.60;71.70;;;;;;10576793;28;20223;-76
2024/01/10 05:28:49;;;;;;;0.60;0.60;;;0.60;72.70;;;;;;10560999;28;20199;-75
2024/01/10 05:33:52;;;;;;;0.50;0.50;;;0.60;72.60;;;;;;10576901;28;20218;-76
2024/01/10 05:38:55;;;;;;;0.70;0.70;;;0.60;71.90;;;;;;10576524;28;20215;-75
2024/01/10 05:43:58;;;;;;;0.40;0.40;;;0.60;71.50;;;;;;10562091;28;20222;-75
2024/01/10 05:49:01;;;;;;;0.43;0.43;;;0.60;71.80;;;;;;10533250;28;20192;-77
2024/01/10 05:54:04;;;;;;;0.50;0.50;;;0.50;71.90;;;;;;10569485;28;20215;-76
2024/01/10 05:59:07;;;;;;;0.60;0.60;;;0.40;72.80;;;;;;10559693;28;20227;-76
2024/01/10 06:04:10;;;;;;;0.60;0.60;;;0.40;73.80;;;;;;10552877;28;20276;-77
2024/01/10 06:09:12;;;;;;;0.60;0.60;;;0.50;73.60;;;;;;10555165;28;20191;-77
2024/01/10 06:14:16;;;;;;;0.50;0.50;;;0.60;74.70;;;;;;10569016;28;20223;-76
2024/01/10 06:19:18;;;;;;;0.70;0.70;;;0.50;74.20;;;;;;10576791;28;20676;-77
2024/01/10 06:24:20;;;;;;;0.60;0.60;;;0.50;74.30;;;;;;10570252;27;20226;-76
2024/01/10 06:29:24;;;;;;;0.53;0.53;;;0.50;73.70;;;;;;10571756;27;20191;-76
2024/01/10 06:34:26;;;;;;;0.60;0.60;;;0.50;75.00;;;;;;10580951;27;20899;-78
2024/01/10 06:39:29;;;;;;;0.17;0.17;;;0.50;75.00;;;;;;10574353;27;20215;-77
2024/01/10 06:44:33;;;;;;;0.60;0.60;;;0.40;74.70;;;;;;10551039;28;20556;-77
2024/01/10 06:49:36;;;;;;;0.50;0.50;;;0.20;74.20;;;;;;10585401;28;20191;-77
2024/01/10 06:54:38;;;;;;;0.50;0.50;;;0.10;75.00;;;;;;10586197;28;20695;-78
2024/01/10 06:59:42;;;;;;;0.50;0.50;;;-0.10;75.50;;;;;;10579029;27;20650;-77
2024/01/10 07:04:47;;;;;;;0.60;0.60;;;-0.20;75.30;;;;;;10559882;28;20571;-77
2024/01/10 07:09:50;;;;;;;0.70;0.70;;;-0.30;75.40;;;;;;10574575;28;20191;-76
2024/01/10 07:14:54;;;;;;;0.40;0.40;;;-0.30;75.80;;;;;;10565385;28;20623;-78
2024/01/10 07:19:57;;;;;;;0.50;0.50;;;-0.40;76.00;;;;;;10547828;28;20210;-75
2024/01/10 07:24:59;;;;;;;0.50;0.50;;;-0.40;76.40;;;;;;10570381;28;20685;-75
2024/01/10 07:30:03;;;;;;;0.60;0.60;;;-0.60;76.60;;;;;;10565092;28;20254;-76
2024/01/10 07:35:09;;;;;;;0.50;0.50;;;-0.70;76.70;;;;;;10559673;28;20215;-76
2024/01/10 07:40:13;;;;;;;0.50;0.50;;;-0.70;76.80;;;;;;10569418;28;20231;-77
2024/01/10 07:45:16;;;;;;;0.60;0.60;;;-0.70;77.20;;;;;;10565050;28;20232;-77
2024/01/10 07:50:19;;;;;;;0.40;0.40;;;-0.80;77.40;;;;;;10564811;28;20196;-76
2024/01/10 07:55:21;;;;;;;0.60;0.60;;;-0.80;77.70;;;;;;10566931;28;20630;-76
2024/01/10 08:00:25;;;;;;;0.50;0.50;;;-0.90;78.70;;;;;;10555565;28;20616;-76
2024/01/10 08:05:28;;;;;;;0.60;0.60;;;-0.80;78.50;;;;;;10571461;28;20257;-76
2024/01/10 08:10:30;;;;;;;0.60;0.60;;;-0.60;79.30;;;;;;10554193;28;20191;-78
2024/01/10 08:15:34;;;;;;;0.50;0.50;;;-0.50;79.60;;;;;;10560282;28;20224;-77
2024/01/10 08:20:37;;;;;;;0.40;0.40;;;-0.30;78.30;;;;;;10568760;28;20218;-78
2024/01/10 08:25:40;;;;;;;0.60;0.60;;;-0.20;78.70;;;;;;10561892;28;20356;-76
2024/01/10 08:30:45;;;;;;;0.40;0.40;;;-0.10;78.30;;;;;;10575849;28;20192;-76
2024/01/10 08:35:47;;;;;;;0.40;0.40;;;0.00;78.40;;;;;;10550595;28;20219;-76
2024/01/10 08:40:50;;;;;;;0.50;0.50;;;0.20;78.50;;;;;;10564559;28;20235;-77
2024/01/10 08:45:53;;;;;;;0.50;0.50;;;0.40;78.70;;;;;;10567940;28;20235;-76
2024/01/10 08:50:56;;;;;;;0.50;0.50;;;0.50;78.10;;;;;;10569873;28;20203;-77
2024/01/10 08:55:58;;;;;;;0.60;0.60;;;0.60;77.90;;;;;;10577243;28;20621;-77
2024/01/10 09:01:02;;;;;;;0.50;0.50;;;0.60;77.40;;;;;;10548113;28;20224;-76
2024/01/10 09:06:05;;;;;;;0.60;0.60;;;0.70;77.20;;;;;;10565800;28;20695;-77
2024/01/10 09:11:07;;;;;;;0.40;0.40;;;0.70;76.70;;;;;;10577376;28;20195;-77
2024/01/10 09:16:11;;;;;;;0.40;0.40;;;0.80;76.40;;;;;;10559248;28;20224;-76
2024/01/10 09:21:13;;;;;;;0.40;0.40;;;0.90;75.50;;;;;;10560808;28;20243;-77
2024/01/10 09:26:15;;;;;;;0.20;0.20;;;0.90;75.60;;;;;;10548828;28;20223;-77
2024/01/10 09:31:19;;;;;;;0.30;0.30;;;0.90;76.40;;;;;;10555546;27;20705;-76
2024/01/10 09:36:22;;;;;;;0.10;0.10;;;1.00;77.10;;;;;;10554876;27;20297;-77
2024/01/10 09:41:28;;;;;;;0.30;0.30;;;1.10;76.80;;;;;;10550835;28;20219;-77
2024/01/10 09:46:35;;;;;;;0.20;0.20;;;1.10;76.60;;;;;;10546958;28;20231;-77
2024/01/10 09:51:38;;;;;;;0.30;0.30;;;1.20;77.30;;;;;;10565825;28;20660;-78
2024/01/10 09:56:42;;;;;;;0.30;0.30;;;1.20;77.50;;;;;;10563391;28;20215;-77
2024/01/10 10:01:46;;;;;;;0.30;0.30;;;1.30;76.60;;;;;;10544352;28;20222;-76
2024/01/10 10:06:48;;;;;;;0.30;0.30;;;1.30;76.40;;;;;;10547191;28;20730;-78
2024/01/10 10:11:55;;;;;;;0.30;0.30;;;1.40;77.80;;;;;;10549996;28;20192;-77
2024/01/10 10:17:15;;;;;;;0.30;0.30;;;1.50;78.00;;;;;;10545705;28;20980;-78
2024/01/10 10:22:17;;;;;;;0.20;0.20;;;1.40;76.40;;;;;;10553391;28;20230;-77
2024/01/10 10:27:19;;;;;;;0.20;0.20;;;1.40;76.20;;;;;;10571424;28;20219;-77
2024/01/10 10:32:23;;;;;;;0.40;0.40;;;1.40;77.60;;;;;;10563484;28;20208;-76
2024/01/10 10:37:25;;;;;;;0.20;0.20;;;1.40;77.10;;;;;;10568944;28;20223;-78
2024/01/10 10:42:31;;;;;;;0.30;0.30;;;1.40;77.00;;;;;;10571535;28;20222;-76
2024/01/10 10:47:38;;;;;;;0.20;0.20;;;1.50;77.70;;;;;;10572575;28;20230;-77
2024/01/10 10:52:46;;;;;;;0.30;0.30;;;1.60;78.60;;;;;;10569102;28;20210;-78
2024/01/10 10:57:50;;;;;;;0.37;0.37;;;1.60;78.50;;;;;;10570883;28;20215;-77
2024/01/10 11:02:54;;;;;;;0.30;0.30;;;1.70;78.60;;;;;;10572446;28;20223;-77
2024/01/10 11:07:58;;;;;;;0.33;0.33;;;1.80;78.70;;;;;;10568265;28;20234;-77
2024/01/10 11:13:28;;;;;;;0.20;0.20;;;1.90;78.80;;;;;;10570820;28;20206;-77
2024/01/10 11:18:45;;;;;;;0.00;0.00;;;2.00;78.50;;;;;;10563475;28;20195;-77
2024/01/10 11:23:50;;;;;;;0.33;0.33;;;2.00;78.20;;;;;;10580846;28;20227;-77
2024/01/10 11:28:53;;;;;;;0.40;0.40;;;2.00;79.10;;;;;;10580656;28;20194;-77
2024/01/10 11:33:57;;;;;;;0.20;0.20;;;2.00;78.30;;;;;;10577719;28;20222;-78
2024/01/10 11:39:02;;;;;;;0.20;0.20;;;2.10;79.50;;;;;;10570226;28;20199;-77
2024/01/10 11:44:47;;;;;;;0.30;0.30;;;2.10;79.30;;;;;;10574397;28;20223;-77
2024/01/10 11:49:58;;;;;;;0.20;0.20;;;2.10;79.10;;;;;;10395791;28;20213;-78
2024/01/10 11:55:03;;;;;;;0.20;0.20;;;2.10;79.30;;;;;;10529414;28;20234;-77
2024/01/10 12:00:08;;;;;;;0.30;0.30;;;2.10;79.50;;;;;;10566500;28;20642;-78
2024/01/10 12:05:14;;;;;;;0.20;0.20;;;2.20;79.20;;;;;;10577347;28;20211;-77
2024/01/10 12:10:21;;;;;;;0.30;0.30;;;2.20;79.70;;;;;;10567100;28;20222;-77
2024/01/10 12:15:23;;;;;;;0.30;0.30;;;2.20;79.30;;;;;;10575097;28;20730;-76
2024/01/10 12:20:28;;;;;;;0.20;0.20;;;2.30;79.60;;;;;;10577055;28;20226;-78
2024/01/10 12:25:31;;;;;;;0.30;0.30;;;2.30;80.00;;;;;;10578162;28;20221;-75
2024/01/10 12:30:34;;;;;;;0.30;0.30;;;2.30;79.60;;;;;;10574078;28;20708;-75
2024/01/10 12:35:41;;;;;;;0.30;0.30;;;2.40;80.10;;;;;;10566407;28;20215;-78
2024/01/10 12:40:43;;;;;;;0.20;0.20;;;2.40;81.00;;;;;;10568375;28;20689;-77
2024/01/10 12:45:46;;;;;;;0.20;0.20;;;2.50;81.00;;;;;;10575164;28;20215;-77
2024/01/10 12:50:49;;;;;;;0.30;0.30;;;2.60;81.00;;;;;;10575473;28;20210;-77
2024/01/10 12:55:52;;;;;;;0.20;0.20;;;2.60;81.30;;;;;;10556324;28;20215;-77
2024/01/10 13:00:54;;;;;;;0.40;0.40;;;2.60;81.80;;;;;;10574779;28;20670;-78
2024/01/10 13:05:59;;;;;;;0.30;0.30;;;2.70;81.80;;;;;;10576463;28;20272;-78
2024/01/10 13:11:01;;;;;;;0.23;0.23;;;2.70;81.80;;;;;;10574316;28;20307;-78
2024/01/10 13:16:04;;;;;;;0.30;0.30;;;2.70;82.30;;;;;;10573587;28;20761;-77
2024/01/10 13:21:08;;;;;;;0.20;0.20;;;2.80;83.40;;;;;;10574917;28;20268;-75
2024/01/10 13:26:11;;;;;;;0.00;0.00;;;2.80;82.50;;;;;;10566694;28;20219;-77
2024/01/10 13:31:14;;;;;;;0.20;0.20;;;2.90;81.20;;;;;;10574595;28;20538;-78
2024/01/10 13:36:17;;;;;;;0.20;0.20;;;2.90;81.30;;;;;;10574555;28;20214;-77
2024/01/10 13:41:20;;;;;;;0.20;0.20;;;2.90;81.80;;;;;;10562700;28;20211;-77
2024/01/10 13:46:22;;;;;;;0.30;0.30;;;3.00;80.50;;;;;;10565131;28;20235;-76
2024/01/10 13:51:26;;;;;;;0.30;0.30;;;2.90;81.20;;;;;;10562932;28;20618;-76
2024/01/10 13:56:29;;;;;;;0.30;0.30;;;2.90;80.60;;;;;;10563963;28;20277;-76
2024/01/10 14:01:32;;;;;;;0.30;0.30;;;3.00;79.90;;;;;;10563588;28;20235;-76
2024/01/10 14:06:36;;;;;;;0.20;0.20;;;2.90;81.80;;;;;;10563711;28;20208;-76
2024/01/10 14:11:38;;;;;;;0.30;0.30;;;3.00;81.40;;;;;;10574376;28;20210;-76
2024/01/10 14:16:41;;;;;;;0.40;0.40;;;3.00;81.90;;;;;;10571674;28;20215;-75
2024/01/10 14:21:45;;;;;;;0.40;0.40;;;3.00;81.00;;;;;;10579656;27;20267;-78
2024/01/10 14:26:48;;;;;;;0.30;0.30;;;3.10;81.10;;;;;;10580803;27;20279;-76
2024/01/10 14:31:50;;;;;;;0.30;0.30;;;3.00;81.30;;;;;;10555983;28;20711;-76
2024/01/10 14:36:54;;;;;;;0.50;0.50;;;3.10;81.60;;;;;;10555380;28;20287;-76
2024/01/10 14:41:57;;;;;;;0.40;0.40;;;3.10;81.30;;;;;;10554291;28;20599;-77
2024/01/10 14:46:59;;;;;;;0.30;0.30;;;3.10;81.20;;;;;;10560162;28;20230;-76
2024/01/10 14:52:03;;;;;;;0.40;0.40;;;3.10;80.80;;;;;;10565469;28;20195;-76
2024/01/10 14:57:05;;;;;;;0.10;0.10;;;3.20;81.10;;;;;;10559576;28;20226;-76
2024/01/10 15:02:08;;;;;;;0.50;0.50;;;3.10;81.40;;;;;;10561620;28;20621;-78
2024/01/10 15:07:11;;;;;;;0.20;0.20;;;3.10;81.70;;;;;;10567305;28;20257;-76
2024/01/10 15:12:14;;;;;;;0.40;0.40;;;3.00;82.10;;;;;;10564501;28;20210;-76
2024/01/10 15:17:16;;;;;;;0.50;0.50;;;2.90;82.40;;;;;;10558966;28;20219;-76
2024/01/10 15:22:20;;;;;;;0.50;0.50;;;2.80;83.00;;;;;;10564744;28;20272;-77
2024/01/10 15:27:22;;;;;;;0.33;0.33;;;2.60;83.00;;;;;;10575327;28;20253;-77
2024/01/10 15:32:25;;;;;;;0.40;0.40;;;2.50;83.30;;;;;;10566575;28;20195;-76
2024/01/10 15:37:30;;;;;;;0.73;0.73;;;2.50;83.50;;;;;;10574560;28;20712;-77
2024/01/10 15:42:32;;;;;;;0.50;0.50;;;2.30;84.00;;;;;;10558799;28;20692;-77
2024/01/10 15:47:34;;;;;;;0.30;0.30;;;2.30;84.60;;;;;;10566742;28;20231;-77
2024/01/10 15:52:38;;;;;;;0.47;0.47;;;2.10;84.70;;;;;;10574553;28;20187;-77
2024/01/10 15:57:40;;;;;;;0.40;0.40;;;2.00;84.90;;;;;;10567849;28;20288;-77
2024/01/10 16:02:43;;;;;;;0.40;0.40;;;1.90;85.70;;;;;;10575669;28;20275;-77
2024/01/10 16:07:46;;;;;;;0.50;0.50;;;1.80;85.40;;;;;;10568745;28;20633;-77
2024/01/10 16:12:49;;;;;;;0.20;0.20;;;1.70;85.20;;;;;;10567375;28;20184;-78
2024/01/10 16:17:51;;;;;;;0.60;0.60;;;1.50;85.50;;;;;;10569991;28;20218;-76
2024/01/10 16:22:55;;;;;;;0.40;0.40;;;1.40;85.90;;;;;;10585694;28;20624;-77
2024/01/10 16:27:57;;;;;;;0.50;0.50;;;1.40;86.30;;;;;;10571339;27;20223;-75
2024/01/10 16:33:00;;;;;;;0.40;0.40;;;1.20;86.20;;;;;;10567579;28;20207;-77
2024/01/10 16:38:04;;;;;;;0.50;0.50;;;1.10;86.80;;;;;;10562737;28;20226;-78
2024/01/10 16:43:06;;;;;;;0.20;0.20;;;1.10;86.80;;;;;;10568330;28;20664;-77
2024/01/10 16:48:09;;;;;;;0.30;0.30;;;1.00;86.70;;;;;;10578831;27;20302;-76
2024/01/10 16:53:12;;;;;;;0.50;0.50;;;1.00;87.10;;;;;;10571642;27;20240;-77
2024/01/10 16:58:15;;;;;;;0.40;0.40;;;1.10;87.40;;;;;;10554253;28;20216;-76
2024/01/10 17:03:17;;;;;;;0.50;0.50;;;1.10;87.20;;;;;;10554879;28;20249;-76
2024/01/10 17:08:24;;;;;;;0.40;0.40;;;1.00;87.60;;;;;;10569471;28;20219;-77
2024/01/10 17:13:26;;;;;;;0.40;0.40;;;0.90;87.80;;;;;;10562266;28;20187;-76
2024/01/10 17:18:29;;;;;;;0.40;0.40;;;1.00;88.10;;;;;;10569029;28;20253;-77
2024/01/10 17:23:32;;;;;;;0.40;0.40;;;1.00;87.60;;;;;;10558802;28;20241;-78
2024/01/10 17:28:35;;;;;;;0.40;0.40;;;1.00;87.60;;;;;;10557929;28;20199;-76
2024/01/10 17:33:37;;;;;;;0.50;0.50;;;1.00;87.50;;;;;;10572972;28;20225;-77
2024/01/10 17:38:42;;;;;;;0.30;0.30;;;0.90;88.50;;;;;;10567186;28;20206;-77
2024/01/10 17:43:45;;;;;;;0.40;0.40;;;0.80;88.10;;;;;;10560177;28;20746;-77
2024/01/10 17:48:49;;;;;;;0.30;0.30;;;0.80;88.30;;;;;;10560321;28;20196;-77
2024/01/10 17:53:52;;;;;;;0.40;0.40;;;0.80;88.30;;;;;;10568014;28;20219;-78
2024/01/10 17:58:55;;;;;;;0.30;0.30;;;0.80;88.40;;;;;;10570492;28;20252;-76
2024/01/10 18:03:57;;;;;;;0.30;0.30;;;0.80;88.80;;;;;;10555003;28;20227;-77
2024/01/10 18:09:01;;;;;;;0.40;0.40;;;0.70;88.90;;;;;;10571183;27;20240;-79
2024/01/10 18:14:03;;;;;;;0.40;0.40;;;0.70;89.60;;;;;;10575475;28;20215;-77
2024/01/10 18:19:05;;;;;;;0.40;0.40;;;0.70;89.20;;;;;;10559989;28;20207;-77
2024/01/10 18:24:09;;;;;;;0.40;0.40;;;0.70;89.20;;;;;;10574203;28;20271;-78
2024/01/10 18:29:13;;;;;;;0.50;0.50;;;0.80;89.30;;;;;;10552794;28;20196;-77
2024/01/10 18:34:16;;;;;;;0.30;0.30;;;0.80;89.60;;;;;;10563936;28;20218;-79
2024/01/10 18:39:22;;;;;;;0.50;0.50;;;0.70;89.20;;;;;;10567104;28;20207;-79
2024/01/10 18:44:25;;;;;;;0.50;0.50;;;0.70;89.60;;;;;;10567383;28;20218;-79
2024/01/10 18:49:28;;;;;;;0.50;0.50;;;0.80;89.50;;;;;;10568052;28;20637;-76
2024/01/10 18:54:32;;;;;;;0.60;0.60;;;0.70;89.50;;;;;;10547160;28;20203;-78
2024/01/10 18:59:34;;;;;;;0.53;0.53;;;0.70;89.90;;;;;;10547941;28;20237;-76
2024/01/10 19:04:36;;;;;;;0.50;0.50;;;0.70;89.30;;;;;;10539020;28;20228;-77
2024/01/10 19:09:40;;;;;;;0.50;0.50;;;0.70;89.20;;;;;;10557073;28;20191;-76
2024/01/10 19:14:43;;;;;;;0.50;0.50;;;0.60;88.50;;;;;;10549181;28;20696;-77
2024/01/10 19:19:46;;;;;;;0.60;0.60;;;0.60;89.00;;;;;;10548856;28;20200;-76
2024/01/10 19:24:50;;;;;;;0.50;0.50;;;0.50;89.10;;;;;;10561457;28;20724;-74
2024/01/10 19:29:52;;;;;;;0.50;0.50;;;0.40;88.50;;;;;;10541914;28;20199;-80
2024/01/10 19:34:55;;;;;;;0.50;0.50;;;0.30;88.50;;;;;;10543610;28;20231;-81
2024/01/10 19:39:58;;;;;;;0.27;0.27;;;0.30;89.40;;;;;;10558255;28;20195;-77
2024/01/10 19:45:01;;;;;;;0.40;0.40;;;0.30;89.30;;;;;;10565476;28;20219;-76
2024/01/10 19:50:04;;;;;;;0.50;0.50;;;0.30;88.80;;;;;;10572895;28;20196;-76
2024/01/10 19:55:09;;;;;;;0.50;0.50;;;0.20;89.00;;;;;;10567258;28;20219;-77
2024/01/10 20:00:12;;;;;;;0.50;0.50;;;0.20;88.80;;;;;;10566384;28;20874;-78
2024/01/10 20:05:14;;;;;;;0.50;0.50;;;0.20;88.80;;;;;;10572023;28;20215;-77
2024/01/10 20:10:19;;;;;;;0.50;0.50;;;0.20;88.90;;;;;;10571845;27;20196;-76
2024/01/10 20:15:21;;;;;;;0.40;0.40;;;0.10;88.80;;;;;;10563319;28;20216;-77
2024/01/10 20:20:24;;;;;;;0.50;0.50;;;0.00;89.00;;;;;;10571862;27;20207;-77
2024/01/10 20:25:27;;;;;;;0.50;0.50;;;0.00;88.90;;;;;;10563398;27;20223;-78
2024/01/10 20:30:30;;;;;;;0.40;0.40;;;0.00;89.10;;;;;;10558152;28;20253;-77
2024/01/10 20:35:33;;;;;;;0.50;0.50;;;-0.10;89.40;;;;;;10559991;28;20211;-77
2024/01/10 20:40:36;;;;;;;0.40;0.40;;;-0.20;89.00;;;;;;10569693;28;20203;-76
2024/01/10 20:45:39;;;;;;;0.50;0.50;;;-0.30;89.40;;;;;;10568058;28;20609;-78
2024/01/10 20:50:42;;;;;;;0.47;0.47;;;-0.40;89.70;;;;;;10544516;28;20261;-77
2024/01/10 20:55:45;;;;;;;0.40;0.40;;;-0.30;89.60;;;;;;10558818;28;20222;-77
2024/01/10 21:00:49;;;;;;;0.50;0.50;;;-0.30;89.50;;;;;;10565713;28;20203;-77
2024/01/10 21:05:52;;;;;;;0.50;0.50;;;-0.40;90.00;;;;;;10553289;28;20239;-75
2024/01/10 21:10:56;;;;;;;0.50;0.50;;;-0.30;90.00;;;;;;10548844;28;20601;-78
2024/01/10 21:15:59;;;;;;;0.50;0.50;;;-0.40;90.10;;;;;;10573164;28;20265;-78
2024/01/10 21:21:03;;;;;;;0.40;0.40;;;-0.30;90.00;;;;;;10568273;28;20192;-77
2024/01/10 21:26:07;;;;;;;0.40;0.40;;;-0.30;90.00;;;;;;10568740;28;20248;-79
2024/01/10 21:31:10;;;;;;;0.30;0.30;;;-0.20;90.00;;;;;;10579634;28;20204;-78
2024/01/10 21:36:12;;;;;;;0.30;0.30;;;-0.30;89.70;;;;;;10581377;27;20283;-80
2024/01/10 21:41:16;;;;;;;0.40;0.40;;;-0.30;90.00;;;;;;10570037;28;20199;-80
2024/01/10 21:46:19;;;;;;;0.40;0.40;;;-0.30;89.70;;;;;;10595541;22;20774;-78
2024/01/10 21:51:21;;;;;;;0.30;0.30;;;-0.30;89.70;;;;;;10550709;28;20629;-79
2024/01/10 21:56:25;;;;;;;0.30;0.30;;;-0.30;89.70;;;;;;10503559;28;20212;-80
2024/01/10 22:01:27;;;;;;;0.30;0.30;;;-0.30;90.00;;;;;;10509353;28;20200;-80
2024/01/10 22:06:30;;;;;;;0.30;0.30;;;-0.30;89.60;;;;;;10491333;28;20239;-80
2024/01/10 22:11:34;;;;;;;0.30;0.30;;;-0.40;89.70;;;;;;10470155;28;20205;-82
2024/01/10 22:16:37;;;;;;;0.30;0.30;;;-0.40;89.70;;;;;;10502065;28;20778;-80
2024/01/10 22:21:39;;;;;;;0.20;0.20;;;-0.50;89.90;;;;;;10498056;28;20250;-81
2024/01/10 22:26:43;;;;;;;0.40;0.40;;;-0.60;90.10;;;;;;10499564;28;20596;-79
2024/01/10 22:31:46;;;;;;;0.30;0.30;;;-0.50;90.20;;;;;;10517919;28;20199;-80
2024/01/10 22:36:48;;;;;;;0.30;0.30;;;-0.50;90.20;;;;;;10498165;28;20246;-81
2024/01/10 22:41:52;;;;;;;0.30;0.30;;;-0.60;90.00;;;;;;10513091;28;20227;-78
2024/01/10 22:46:55;;;;;;;0.33;0.33;;;-0.60;90.20;;;;;;10510465;28;20236;-80
2024/01/10 22:51:57;;;;;;;0.40;0.40;;;-0.60;90.20;;;;;;10488272;28;20212;-79
2024/01/10 22:57:01;;;;;;;0.40;0.40;;;-0.60;90.30;;;;;;10505268;28;20212;-81
2024/01/10 23:02:03;;;;;;;0.30;0.30;;;-0.60;90.40;;;;;;10503706;28;20200;-78
2024/01/10 23:07:06;;;;;;;0.40;0.40;;;-0.60;90.30;;;;;;10502776;28;20283;-82
2024/01/10 23:12:10;;;;;;;0.33;0.33;;;-0.60;90.40;;;;;;10488189;28;20203;-81
2024/01/10 23:17:13;;;;;;;0.40;0.40;;;-0.60;90.40;;;;;;10504547;28;20219;-81
2024/01/10 23:22:15;;;;;;;0.40;0.40;;;-0.70;90.50;;;;;;10506461;28;20203;-79
2024/01/10 23:27:19;;;;;;;0.30;0.30;;;-0.70;90.30;;;;;;10517840;28;20655;-82
2024/01/10 23:32:25;;;;;;;0.30;0.30;;;-0.70;90.30;;;;;;10517502;28;20196;-79
2024/01/10 23:37:27;;;;;;;0.40;0.40;;;-0.70;90.50;;;;;;10514197;28;20226;-80
2024/01/10 23:42:31;;;;;;;0.40;0.40;;;-0.70;90.50;;;;;;10495758;28;20219;-78
2024/01/10 23:47:34;;;;;;;0.50;0.50;;;-0.80;90.50;;;;;;10500839;28;20228;-80
2024/01/10 23:52:36;;;;;;;0.50;0.50;;;-0.70;90.60;;;;;;10503173;28;20677;-80
2024/01/10 23:57:40;;;;;;;0.40;0.40;;;-0.70;90.50;;;;;;10506687;28;20243;-80
